sensor_id;sensor_type;location;lat;lon;timestamp;pressure;altitude;pressure_sealevel;temperature;humidity
22649;BME280;11491;41.942;24.220;2023-04-06T00:00:09;89364.75;;;0.09;86.16
22649;BME280;11491;41.942;24.220;2023-04-06T00:02:37;89361.34;;;-0.05;84.80
22649;BME280;11491;41.942;24.220;2023-04-06T00:05:04;89374.31;;;-0.36;86.52
22649;BME280;11491;41.942;24.220;2023-04-06T00:07:31;89354.84;;;-0.49;86.81
22649;BME280;11491;41.942;24.220;2023-04-06T00:09:58;89355.69;;;-0.40;87.47
22649;BME280;11491;41.942;24.220;2023-04-06T00:12:25;89351.53;;;-0.41;88.08
22649;BME280;11491;41.942;24.220;2023-04-06T00:14:52;89351.81;;;-0.29;88.57
22649;BME280;11491;41.942;24.220;2023-04-06T00:17:20;89347.66;;;-0.16;88.47
22649;BME280;11491;41.942;24.220;2023-04-06T00:19:47;89353.88;;;-0.12;87.82
22649;BME280;11491;41.942;24.220;2023-04-06T00:22:14;89339.09;;;-0.22;87.85
22649;BME280;11491;41.942;24.220;2023-04-06T00:24:41;89342.00;;;-0.09;88.11
22649;BME280;11491;41.942;24.220;2023-04-06T00:27:08;89329.91;;;-0.10;87.92
22649;BME280;11491;41.942;24.220;2023-04-06T00:29:35;89327.78;;;-0.08;87.76
22649;BME280;11491;41.942;24.220;2023-04-06T00:32:05;89328.16;;;-0.01;88.18
22649;BME280;11491;41.942;24.220;2023-04-06T00:34:33;89334.78;;;-0.04;87.77
22649;BME280;11491;41.942;24.220;2023-04-06T00:37:00;89320.38;;;-0.06;87.96
22649;BME280;11491;41.942;24.220;2023-04-06T00:39:27;89326.81;;;0.02;87.90
22649;BME280;11491;41.942;24.220;2023-04-06T00:41:54;89318.81;;;0.07;86.85
22649;BME280;11491;41.942;24.220;2023-04-06T00:44:22;89297.44;;;-0.14;87.39
22649;BME280;11491;41.942;24.220;2023-04-06T00:46:49;89316.69;;;0.09;86.76
22649;BME280;11491;41.942;24.220;2023-04-06T00:49:16;89309.97;;;0.03;86.04
22649;BME280;11491;41.942;24.220;2023-04-06T00:51:44;89314.53;;;-0.03;86.71
22649;BME280;11491;41.942;24.220;2023-04-06T00:54:11;89316.88;;;-0.02;87.07
22649;BME280;11491;41.942;24.220;2023-04-06T00:56:38;89311.03;;;0.02;87.29
22649;BME280;11491;41.942;24.220;2023-04-06T00:59:05;89314.63;;;0.06;85.88
22649;BME280;11491;41.942;24.220;2023-04-06T01:01:32;89318.75;;;-0.02;86.94
22649;BME280;11491;41.942;24.220;2023-04-06T01:03:59;89314.53;;;-0.03;86.88
22649;BME280;11491;41.942;24.220;2023-04-06T01:06:28;89314.94;;;-0.10;87.16
22649;BME280;11491;41.942;24.220;2023-04-06T01:08:56;89304.06;;;-0.17;87.89
22649;BME280;11491;41.942;24.220;2023-04-06T01:11:23;89310.97;;;-0.07;88.25
22649;BME280;11491;41.942;24.220;2023-04-06T01:13:50;89295.19;;;-0.07;88.31
22649;BME280;11491;41.942;24.220;2023-04-06T01:16:17;89304.63;;;-0.06;88.42
22649;BME280;11491;41.942;24.220;2023-04-06T01:18:43;89295.75;;;-0.10;88.15
22649;BME280;11491;41.942;24.220;2023-04-06T01:21:10;89296.44;;;-0.05;88.26
22649;BME280;11491;41.942;24.220;2023-04-06T01:23:43;89288.47;;;0.01;87.68
22649;BME280;11491;41.942;24.220;2023-04-06T01:26:10;89286.13;;;-0.01;86.35
22649;BME280;11491;41.942;24.220;2023-04-06T01:28:37;89282.03;;;-0.07;86.72
22649;BME280;11491;41.942;24.220;2023-04-06T01:31:05;89279.88;;;-0.05;87.47
22649;BME280;11491;41.942;24.220;2023-04-06T01:33:32;89284.19;;;-0.09;86.95
22649;BME280;11491;41.942;24.220;2023-04-06T01:35:59;89279.72;;;-0.23;87.62
22649;BME280;11491;41.942;24.220;2023-04-06T01:38:26;89283.69;;;-0.11;87.03
22649;BME280;11491;41.942;24.220;2023-04-06T01:40:54;89276.03;;;-0.22;87.16
22649;BME280;11491;41.942;24.220;2023-04-06T01:43:21;89272.31;;;-0.20;85.99
22649;BME280;11491;41.942;24.220;2023-04-06T01:45:48;89268.44;;;-0.37;86.11
22649;BME280;11491;41.942;24.220;2023-04-06T01:48:16;89271.25;;;-0.61;86.30
22649;BME280;11491;41.942;24.220;2023-04-06T01:50:43;89270.00;;;-0.63;87.26
22649;BME280;11491;41.942;24.220;2023-04-06T01:53:10;89266.97;;;-0.71;87.96
22649;BME280;11491;41.942;24.220;2023-04-06T01:55:37;89275.63;;;-0.84;88.33
22649;BME280;11491;41.942;24.220;2023-04-06T01:58:05;89264.94;;;-0.74;88.57
22649;BME280;11491;41.942;24.220;2023-04-06T02:00:32;89265.03;;;-0.79;88.52
22649;BME280;11491;41.942;24.220;2023-04-06T02:02:59;89266.22;;;-0.71;88.79
22649;BME280;11491;41.942;24.220;2023-04-06T02:05:26;89259.28;;;-0.81;89.73
22649;BME280;11491;41.942;24.220;2023-04-06T02:07:53;89263.75;;;-0.68;89.59
22649;BME280;11491;41.942;24.220;2023-04-06T02:10:20;89271.16;;;-0.70;88.41
22649;BME280;11491;41.942;24.220;2023-04-06T02:12:47;89268.81;;;-0.85;88.11
22649;BME280;11491;41.942;24.220;2023-04-06T02:15:15;89268.81;;;-0.85;88.78
22649;BME280;11491;41.942;24.220;2023-04-06T02:17:42;89258.50;;;-0.95;87.78
22649;BME280;11491;41.942;24.220;2023-04-06T02:20:09;89263.16;;;-0.92;86.58
22649;BME280;11491;41.942;24.220;2023-04-06T02:22:36;89270.34;;;-0.98;87.70
22649;BME280;11491;41.942;24.220;2023-04-06T02:25:04;89265.47;;;-1.04;86.70
22649;BME280;11491;41.942;24.220;2023-04-06T02:27:31;89259.44;;;-1.19;88.18
22649;BME280;11491;41.942;24.220;2023-04-06T02:29:57;89263.94;;;-1.05;87.59
22649;BME280;11491;41.942;24.220;2023-04-06T02:32:26;89275.47;;;-1.39;87.83
22649;BME280;11491;41.942;24.220;2023-04-06T02:34:53;89269.59;;;-1.64;88.28
22649;BME280;11491;41.942;24.220;2023-04-06T02:37:20;89260.66;;;-1.63;88.35
22649;BME280;11491;41.942;24.220;2023-04-06T02:39:47;89267.88;;;-1.55;87.58
22649;BME280;11491;41.942;24.220;2023-04-06T02:42:14;89261.50;;;-1.86;88.38
22649;BME280;11491;41.942;24.220;2023-04-06T02:44:41;89258.03;;;-1.82;90.05
22649;BME280;11491;41.942;24.220;2023-04-06T02:47:08;89263.72;;;-1.75;88.70
22649;BME280;11491;41.942;24.220;2023-04-06T02:49:36;89260.97;;;-1.83;88.03
22649;BME280;11491;41.942;24.220;2023-04-06T02:52:03;89253.38;;;-1.85;89.19
22649;BME280;11491;41.942;24.220;2023-04-06T02:54:30;89256.19;;;-1.62;89.35
22649;BME280;11491;41.942;24.220;2023-04-06T02:56:58;89258.94;;;-1.54;89.73
22649;BME280;11491;41.942;24.220;2023-04-06T02:59:25;89250.00;;;-1.53;89.25
22649;BME280;11491;41.942;24.220;2023-04-06T03:01:52;89265.81;;;-1.39;89.50
22649;BME280;11491;41.942;24.220;2023-04-06T03:04:18;89260.06;;;-1.27;89.85
22649;BME280;11491;41.942;24.220;2023-04-06T03:06:49;89263.53;;;-1.13;89.67
22649;BME280;11491;41.942;24.220;2023-04-06T03:09:15;89265.59;;;-0.96;89.66
22649;BME280;11491;41.942;24.220;2023-04-06T03:11:42;89268.22;;;-0.96;89.81
22649;BME280;11491;41.942;24.220;2023-04-06T03:14:09;89260.63;;;-0.97;89.75
22649;BME280;11491;41.942;24.220;2023-04-06T03:16:36;89260.66;;;-0.83;88.48
22649;BME280;11491;41.942;24.220;2023-04-06T03:19:03;89258.13;;;-0.89;88.79
22649;BME280;11491;41.942;24.220;2023-04-06T03:21:30;89267.63;;;-0.93;89.84
22649;BME280;11491;41.942;24.220;2023-04-06T03:23:58;89266.50;;;-0.87;89.01
22649;BME280;11491;41.942;24.220;2023-04-06T03:26:25;89240.81;;;-1.03;88.93
22649;BME280;11491;41.942;24.220;2023-04-06T03:28:52;89266.53;;;-1.05;88.51
22649;BME280;11491;41.942;24.220;2023-04-06T03:31:19;89260.16;;;-1.32;88.93
22649;BME280;11491;41.942;24.220;2023-04-06T03:33:45;89230.03;;;-1.48;90.74
22649;BME280;11491;41.942;24.220;2023-04-06T03:36:12;89267.53;;;-1.01;89.94
22649;BME280;11491;41.942;24.220;2023-04-06T03:38:40;89261.97;;;-1.00;90.18
22649;BME280;11491;41.942;24.220;2023-04-06T03:41:08;89265.41;;;-0.99;91.43
22649;BME280;11491;41.942;24.220;2023-04-06T03:43:35;89253.81;;;-0.98;90.92
22649;BME280;11491;41.942;24.220;2023-04-06T03:46:02;89266.09;;;-0.80;90.32
22649;BME280;11491;41.942;24.220;2023-04-06T03:48:29;89258.91;;;-0.88;91.18
22649;BME280;11491;41.942;24.220;2023-04-06T03:50:56;89275.81;;;-0.80;91.52
22649;BME280;11491;41.942;24.220;2023-04-06T03:53:22;89270.88;;;-0.82;92.13
22649;BME280;11491;41.942;24.220;2023-04-06T03:55:49;89274.09;;;-0.71;91.72
22649;BME280;11491;41.942;24.220;2023-04-06T03:58:17;89271.53;;;-0.62;91.03
22649;BME280;11491;41.942;24.220;2023-04-06T04:00:44;89277.88;;;-0.63;91.07
22649;BME280;11491;41.942;24.220;2023-04-06T04:03:11;89270.78;;;-0.63;91.25
22649;BME280;11491;41.942;24.220;2023-04-06T04:05:38;89280.50;;;-0.63;91.16
22649;BME280;11491;41.942;24.220;2023-04-06T04:08:05;89276.78;;;-0.62;90.22
22649;BME280;11491;41.942;24.220;2023-04-06T04:10:32;89269.81;;;-0.67;89.91
22649;BME280;11491;41.942;24.220;2023-04-06T04:12:59;89261.81;;;-0.76;90.55
22649;BME280;11491;41.942;24.220;2023-04-06T04:15:27;89277.38;;;-0.66;90.64
22649;BME280;11491;41.942;24.220;2023-04-06T04:17:54;89276.25;;;-0.59;90.95
22649;BME280;11491;41.942;24.220;2023-04-06T04:20:21;89274.56;;;-0.55;91.42
22649;BME280;11491;41.942;24.220;2023-04-06T04:22:47;89267.28;;;-0.58;90.50
22649;BME280;11491;41.942;24.220;2023-04-06T04:25:14;89277.00;;;-0.45;90.67
22649;BME280;11491;41.942;24.220;2023-04-06T04:27:41;89272.72;;;-0.41;90.03
22649;BME280;11491;41.942;24.220;2023-04-06T04:30:08;89283.72;;;-0.39;89.82
22649;BME280;11491;41.942;24.220;2023-04-06T04:32:36;89277.69;;;-0.39;88.30
22649;BME280;11491;41.942;24.220;2023-04-06T04:35:04;89279.81;;;-0.28;88.65
22649;BME280;11491;41.942;24.220;2023-04-06T04:37:31;89282.22;;;-0.17;87.05
22649;BME280;11491;41.942;24.220;2023-04-06T04:39:57;89281.88;;;-0.25;87.48
22649;BME280;11491;41.942;24.220;2023-04-06T04:42:24;89278.66;;;-0.22;87.31
22649;BME280;11491;41.942;24.220;2023-04-06T04:44:51;89276.03;;;-0.22;87.68
22649;BME280;11491;41.942;24.220;2023-04-06T04:47:18;89277.78;;;-0.17;88.92
22649;BME280;11491;41.942;24.220;2023-04-06T04:49:47;89275.22;;;-0.08;89.64
22649;BME280;11491;41.942;24.220;2023-04-06T04:52:13;89286.31;;;-0.11;89.28
22649;BME280;11491;41.942;24.220;2023-04-06T04:54:40;89281.38;;;-0.27;89.33
22649;BME280;11491;41.942;24.220;2023-04-06T04:57:08;89283.91;;;-0.22;90.02
22649;BME280;11491;41.942;24.220;2023-04-06T04:59:34;89276.00;;;-0.08;89.93
22649;BME280;11491;41.942;24.220;2023-04-06T05:02:01;89280.47;;;0.06;90.29
22649;BME280;11491;41.942;24.220;2023-04-06T05:04:28;89281.72;;;0.08;90.05
22649;BME280;11491;41.942;24.220;2023-04-06T05:07:04;89286.09;;;0.13;89.66
22649;BME280;11491;41.942;24.220;2023-04-06T05:09:31;89280.53;;;0.14;88.99
22649;BME280;11491;41.942;24.220;2023-04-06T05:11:58;89285.91;;;0.09;89.37
22649;BME280;11491;41.942;24.220;2023-04-06T05:14:25;89279.66;;;0.19;87.62
22649;BME280;11491;41.942;24.220;2023-04-06T05:16:52;89275.75;;;0.16;87.81
22649;BME280;11491;41.942;24.220;2023-04-06T05:19:19;89279.03;;;0.36;88.82
22649;BME280;11491;41.942;24.220;2023-04-06T05:21:46;89273.94;;;0.39;86.95
22649;BME280;11491;41.942;24.220;2023-04-06T05:24:17;89278.19;;;0.49;86.88
22649;BME280;11491;41.942;24.220;2023-04-06T05:26:44;89279.16;;;0.53;86.06
22649;BME280;11491;41.942;24.220;2023-04-06T05:29:12;89278.94;;;0.63;85.46
22649;BME280;11491;41.942;24.220;2023-04-06T05:31:39;89278.06;;;0.54;85.17
22649;BME280;11491;41.942;24.220;2023-04-06T05:34:06;89235.03;;;0.28;85.62
22649;BME280;11491;41.942;24.220;2023-04-06T05:36:34;89270.78;;;0.51;85.59
22649;BME280;11491;41.942;24.220;2023-04-06T05:39:01;89269.00;;;0.60;85.49
22649;BME280;11491;41.942;24.220;2023-04-06T05:41:32;89259.28;;;0.47;85.07
22649;BME280;11491;41.942;24.220;2023-04-06T05:43:59;89258.84;;;0.45;83.80
22649;BME280;11491;41.942;24.220;2023-04-06T05:46:26;89264.09;;;0.45;83.92
22649;BME280;11491;41.942;24.220;2023-04-06T05:48:53;89259.16;;;0.30;84.73
22649;BME280;11491;41.942;24.220;2023-04-06T05:51:19;89249.63;;;0.34;85.53
22649;BME280;11491;41.942;24.220;2023-04-06T05:53:46;89257.28;;;0.44;84.97
22649;BME280;11491;41.942;24.220;2023-04-06T05:56:13;89246.25;;;0.42;84.59
22649;BME280;11491;41.942;24.220;2023-04-06T05:58:41;89240.84;;;0.38;85.09
22649;BME280;11491;41.942;24.220;2023-04-06T06:01:08;89252.63;;;0.63;84.77
22649;BME280;11491;41.942;24.220;2023-04-06T06:03:35;89255.44;;;0.90;84.30
22649;BME280;11491;41.942;24.220;2023-04-06T06:06:04;89245.78;;;1.07;82.58
22649;BME280;11491;41.942;24.220;2023-04-06T06:08:31;89248.34;;;1.30;83.28
22649;BME280;11491;41.942;24.220;2023-04-06T06:10:58;89253.69;;;1.47;82.55
22649;BME280;11491;41.942;24.220;2023-04-06T06:13:25;89233.31;;;1.31;81.50
22649;BME280;11491;41.942;24.220;2023-04-06T06:15:54;89251.16;;;1.34;80.91
22649;BME280;11491;41.942;24.220;2023-04-06T06:18:20;89244.75;;;1.17;80.46
22649;BME280;11491;41.942;24.220;2023-04-06T06:20:47;89228.75;;;1.14;81.17
22649;BME280;11491;41.942;24.220;2023-04-06T06:23:14;89235.63;;;1.23;80.45
22649;BME280;11491;41.942;24.220;2023-04-06T06:25:41;89248.34;;;1.30;81.11
22649;BME280;11491;41.942;24.220;2023-04-06T06:28:08;89251.53;;;1.49;81.99
22649;BME280;11491;41.942;24.220;2023-04-06T06:30:35;89248.22;;;1.75;81.50
22649;BME280;11491;41.942;24.220;2023-04-06T06:33:03;89244.84;;;2.01;80.60
22649;BME280;11491;41.942;24.220;2023-04-06T06:35:30;89243.34;;;2.17;79.02
22649;BME280;11491;41.942;24.220;2023-04-06T06:37:57;89253.91;;;2.34;78.56
22649;BME280;11491;41.942;24.220;2023-04-06T06:40:24;89253.16;;;2.51;78.70
22649;BME280;11491;41.942;24.220;2023-04-06T06:42:51;89250.50;;;2.60;76.87
22649;BME280;11491;41.942;24.220;2023-04-06T06:45:18;89253.28;;;2.55;77.36
22649;BME280;11491;41.942;24.220;2023-04-06T06:47:45;89252.53;;;2.72;76.99
22649;BME280;11491;41.942;24.220;2023-04-06T06:50:14;89257.34;;;2.78;76.75
22649;BME280;11491;41.942;24.220;2023-04-06T06:52:40;89261.66;;;2.92;75.77
22649;BME280;11491;41.942;24.220;2023-04-06T06:55:09;89259.50;;;2.76;75.72
22649;BME280;11491;41.942;24.220;2023-04-06T06:57:36;89264.16;;;2.79;76.56
22649;BME280;11491;41.942;24.220;2023-04-06T07:00:04;89261.66;;;2.92;76.97
22649;BME280;11491;41.942;24.220;2023-04-06T07:02:34;89266.16;;;3.00;76.98
22649;BME280;11491;41.942;24.220;2023-04-06T07:05:02;89254.88;;;2.73;77.88
22649;BME280;11491;41.942;24.220;2023-04-06T07:07:32;89268.06;;;2.73;77.08
22649;BME280;11491;41.942;24.220;2023-04-06T07:09:59;89265.88;;;2.67;77.22
22649;BME280;11491;41.942;24.220;2023-04-06T07:12:26;89264.31;;;2.57;77.55
22649;BME280;11491;41.942;24.220;2023-04-06T07:14:53;89270.53;;;2.78;77.83
22649;BME280;11491;41.942;24.220;2023-04-06T07:17:20;89274.09;;;3.00;78.03
22649;BME280;11491;41.942;24.220;2023-04-06T07:19:47;89270.50;;;3.13;75.10
22649;BME280;11491;41.942;24.220;2023-04-06T07:22:14;89274.09;;;2.83;74.67
22649;BME280;11491;41.942;24.220;2023-04-06T07:24:42;89269.13;;;2.72;74.99
22649;BME280;11491;41.942;24.220;2023-04-06T07:27:09;89275.03;;;2.87;75.96
22649;BME280;11491;41.942;24.220;2023-04-06T07:29:36;89266.66;;;2.85;76.96
22649;BME280;11491;41.942;24.220;2023-04-06T07:32:03;89267.25;;;2.99;77.63
22649;BME280;11491;41.942;24.220;2023-04-06T07:34:30;89267.84;;;3.31;76.74
22649;BME280;11491;41.942;24.220;2023-04-06T07:36:56;89273.63;;;3.62;75.97
22649;BME280;11491;41.942;24.220;2023-04-06T07:39:23;89278.69;;;3.85;75.94
22649;BME280;11491;41.942;24.220;2023-04-06T07:41:53;89273.16;;;4.07;74.65
22649;BME280;11491;41.942;24.220;2023-04-06T07:44:20;89276.28;;;4.30;73.63
22649;BME280;11491;41.942;24.220;2023-04-06T07:46:46;89266.75;;;4.38;71.33
22649;BME280;11491;41.942;24.220;2023-04-06T07:49:13;89269.75;;;4.58;71.65
22649;BME280;11491;41.942;24.220;2023-04-06T07:51:40;89265.88;;;4.76;71.14
22649;BME280;11491;41.942;24.220;2023-04-06T07:54:07;89263.72;;;4.90;69.78
22649;BME280;11491;41.942;24.220;2023-04-06T07:56:34;89267.22;;;5.03;70.42
22649;BME280;11491;41.942;24.220;2023-04-06T07:59:05;89257.84;;;5.06;69.76
22649;BME280;11491;41.942;24.220;2023-04-06T08:01:31;89266.84;;;5.26;70.31
22649;BME280;11491;41.942;24.220;2023-04-06T08:03:58;89262.47;;;5.30;70.17
22649;BME280;11491;41.942;24.220;2023-04-06T08:06:28;89269.69;;;5.42;69.85
22649;BME280;11491;41.942;24.220;2023-04-06T08:08:54;89247.38;;;5.43;70.43
22649;BME280;11491;41.942;24.220;2023-04-06T08:11:21;89265.75;;;5.60;68.36
22649;BME280;11491;41.942;24.220;2023-04-06T08:13:48;89267.47;;;5.44;68.08
22649;BME280;11491;41.942;24.220;2023-04-06T08:16:17;89263.06;;;5.48;68.67
22649;BME280;11491;41.942;24.220;2023-04-06T08:18:44;89257.50;;;5.40;67.46
22649;BME280;11491;41.942;24.220;2023-04-06T08:21:10;89263.38;;;5.13;66.86
22649;BME280;11491;41.942;24.220;2023-04-06T08:23:37;89242.50;;;4.78;70.51
22649;BME280;11491;41.942;24.220;2023-04-06T08:26:04;89263.34;;;5.01;70.58
22649;BME280;11491;41.942;24.220;2023-04-06T08:28:31;89257.16;;;5.30;70.26
22649;BME280;11491;41.942;24.220;2023-04-06T08:31:03;89245.69;;;5.05;72.28
22649;BME280;11491;41.942;24.220;2023-04-06T08:33:32;89255.06;;;5.35;71.11
22649;BME280;11491;41.942;24.220;2023-04-06T08:36:07;89251.78;;;5.51;69.77
22649;BME280;11491;41.942;24.220;2023-04-06T08:38:34;89243.75;;;5.59;70.85
22649;BME280;11491;41.942;24.220;2023-04-06T08:41:07;89254.38;;;5.26;69.91
22649;BME280;11491;41.942;24.220;2023-04-06T08:43:38;89248.69;;;4.82;71.35
22649;BME280;11491;41.942;24.220;2023-04-06T08:46:07;89239.91;;;4.90;70.59
22649;BME280;11491;41.942;24.220;2023-04-06T08:48:36;89239.97;;;4.61;71.49
22649;BME280;11491;41.942;24.220;2023-04-06T08:51:03;89244.53;;;4.51;73.57
22649;BME280;11491;41.942;24.220;2023-04-06T08:53:30;89246.34;;;4.39;74.68
22649;BME280;11491;41.942;24.220;2023-04-06T08:55:58;89243.28;;;4.58;74.70
22649;BME280;11491;41.942;24.220;2023-04-06T08:58:28;89240.16;;;4.56;74.92
22649;BME280;11491;41.942;24.220;2023-04-06T09:00:55;89240.94;;;4.77;75.40
22649;BME280;11491;41.942;24.220;2023-04-06T09:03:23;89250.84;;;5.01;74.45
22649;BME280;11491;41.942;24.220;2023-04-06T09:05:52;89245.34;;;5.27;74.99
22649;BME280;11491;41.942;24.220;2023-04-06T09:08:19;89238.03;;;5.24;72.15
22649;BME280;11491;41.942;24.220;2023-04-06T09:10:46;89240.88;;;5.19;71.49
22649;BME280;11491;41.942;24.220;2023-04-06T09:13:14;89238.75;;;5.46;70.64
22649;BME280;11491;41.942;24.220;2023-04-06T09:15:41;89240.03;;;5.27;70.37
22649;BME280;11491;41.942;24.220;2023-04-06T09:18:07;89229.22;;;5.32;72.66
22649;BME280;11491;41.942;24.220;2023-04-06T09:20:34;89238.91;;;5.28;73.33
22649;BME280;11491;41.942;24.220;2023-04-06T09:23:03;89237.25;;;5.57;71.44
22649;BME280;11491;41.942;24.220;2023-04-06T09:25:30;89229.25;;;5.45;70.22
22649;BME280;11491;41.942;24.220;2023-04-06T09:28:01;89233.69;;;5.53;72.55
22649;BME280;11491;41.942;24.220;2023-04-06T09:30:29;89233.50;;;5.70;72.74
22649;BME280;11491;41.942;24.220;2023-04-06T09:32:57;89233.78;;;6.02;68.99
22649;BME280;11491;41.942;24.220;2023-04-06T09:35:24;89228.88;;;5.92;69.02
22649;BME280;11491;41.942;24.220;2023-04-06T09:37:53;89226.91;;;6.01;70.90
22649;BME280;11491;41.942;24.220;2023-04-06T09:40:22;89228.00;;;6.37;71.48
22649;BME280;11491;41.942;24.220;2023-04-06T09:42:50;89220.34;;;6.88;69.34
22649;BME280;11491;41.942;24.220;2023-04-06T09:45:19;89226.75;;;6.99;66.50
22649;BME280;11491;41.942;24.220;2023-04-06T09:47:47;89217.28;;;6.86;65.90
22649;BME280;11491;41.942;24.220;2023-04-06T09:50:15;89215.44;;;6.74;64.75
22649;BME280;11491;41.942;24.220;2023-04-06T09:52:46;89227.03;;;6.82;66.05
22649;BME280;11491;41.942;24.220;2023-04-06T09:55:20;89231.97;;;7.52;67.89
22649;BME280;11491;41.942;24.220;2023-04-06T09:57:57;89234.41;;;8.05;66.29
22649;BME280;11491;41.942;24.220;2023-04-06T10:00:25;89233.47;;;8.45;67.16
22649;BME280;11491;41.942;24.220;2023-04-06T10:02:57;89229.31;;;8.98;63.81
22649;BME280;11491;41.942;24.220;2023-04-06T10:05:32;89226.59;;;9.14;61.80
22649;BME280;11491;41.942;24.220;2023-04-06T10:08:06;89223.78;;;9.07;62.87
22649;BME280;11491;41.942;24.220;2023-04-06T10:10:34;89224.91;;;9.06;63.83
22649;BME280;11491;41.942;24.220;2023-04-06T10:13:02;89221.28;;;9.14;60.11
22649;BME280;11491;41.942;24.220;2023-04-06T10:15:30;89223.38;;;9.05;59.91
22649;BME280;11491;41.942;24.220;2023-04-06T10:17:58;89220.00;;;9.08;58.92
22649;BME280;11491;41.942;24.220;2023-04-06T10:20:29;89212.28;;;9.03;57.15
22649;BME280;11491;41.942;24.220;2023-04-06T10:23:04;89216.69;;;8.95;59.97
22649;BME280;11491;41.942;24.220;2023-04-06T10:25:34;89211.25;;;8.72;58.86
22649;BME280;11491;41.942;24.220;2023-04-06T10:28:05;89216.66;;;8.40;59.00
22649;BME280;11491;41.942;24.220;2023-04-06T10:30:33;89221.09;;;8.36;57.74
22649;BME280;11491;41.942;24.220;2023-04-06T10:33:00;89218.53;;;8.24;60.90
22649;BME280;11491;41.942;24.220;2023-04-06T10:35:36;89213.72;;;8.14;59.30
22649;BME280;11491;41.942;24.220;2023-04-06T10:38:04;89186.09;;;8.03;60.37
22649;BME280;11491;41.942;24.220;2023-04-06T10:40:31;89211.16;;;8.17;61.24
22649;BME280;11491;41.942;24.220;2023-04-06T10:43:08;89206.59;;;8.18;59.57
22649;BME280;11491;41.942;24.220;2023-04-06T10:45:35;89201.34;;;8.37;62.27
22649;BME280;11491;41.942;24.220;2023-04-06T10:48:12;89206.50;;;9.01;64.06
22649;BME280;11491;41.942;24.220;2023-04-06T10:50:40;89197.25;;;9.34;59.91
22649;BME280;11491;41.942;24.220;2023-04-06T10:53:07;89202.41;;;9.65;59.26
22649;BME280;11491;41.942;24.220;2023-04-06T10:55:38;89198.16;;;10.30;56.64
22649;BME280;11491;41.942;24.220;2023-04-06T10:58:08;89197.88;;;10.62;56.48
22649;BME280;11491;41.942;24.220;2023-04-06T11:00:35;89173.19;;;10.45;53.32
22649;BME280;11491;41.942;24.220;2023-04-06T11:03:05;89206.22;;;10.56;55.41
22649;BME280;11491;41.942;24.220;2023-04-06T11:05:31;89201.59;;;10.53;53.98
22649;BME280;11491;41.942;24.220;2023-04-06T11:07:58;89193.25;;;10.59;53.38
22649;BME280;11491;41.942;24.220;2023-04-06T11:10:25;89181.28;;;10.26;53.71
22649;BME280;11491;41.942;24.220;2023-04-06T11:12:53;89189.00;;;10.31;53.73
22649;BME280;11491;41.942;24.220;2023-04-06T11:15:22;89190.72;;;10.20;55.06
22649;BME280;11491;41.942;24.220;2023-04-06T11:17:49;89194.88;;;10.40;56.80
22649;BME280;11491;41.942;24.220;2023-04-06T11:20:16;89185.63;;;10.61;52.72
22649;BME280;11491;41.942;24.220;2023-04-06T11:22:49;89169.66;;;10.14;53.39
22649;BME280;11491;41.942;24.220;2023-04-06T11:25:16;89168.38;;;9.82;55.17
22649;BME280;11491;41.942;24.220;2023-04-06T11:27:44;89169.19;;;10.32;55.62
22649;BME280;11491;41.942;24.220;2023-04-06T11:30:12;89181.63;;;11.01;53.00
22649;BME280;11491;41.942;24.220;2023-04-06T11:32:43;89163.81;;;10.85;51.85
22649;BME280;11491;41.942;24.220;2023-04-06T11:35:11;89173.66;;;10.77;49.55
22649;BME280;11491;41.942;24.220;2023-04-06T11:37:39;89170.03;;;10.36;51.00
22649;BME280;11491;41.942;24.220;2023-04-06T11:40:08;89179.63;;;10.18;53.86
22649;BME280;11491;41.942;24.220;2023-04-06T11:42:35;89172.41;;;9.95;52.49
22649;BME280;11491;41.942;24.220;2023-04-06T11:45:04;89185.88;;;9.37;51.47
22649;BME280;11491;41.942;24.220;2023-04-06T11:47:34;89182.06;;;8.60;54.14
22649;BME280;11491;41.942;24.220;2023-04-06T11:50:11;89184.88;;;8.16;57.69
22649;BME280;11491;41.942;24.220;2023-04-06T11:52:39;89188.22;;;7.97;57.45
22649;BME280;11491;41.942;24.220;2023-04-06T11:55:17;89177.66;;;7.69;55.70
22649;BME280;11491;41.942;24.220;2023-04-06T11:57:44;89188.19;;;7.49;58.43
22649;BME280;11491;41.942;24.220;2023-04-06T12:00:12;89181.41;;;7.36;59.26
22649;BME280;11491;41.942;24.220;2023-04-06T12:02:39;89182.50;;;7.19;60.48
22649;BME280;11491;41.942;24.220;2023-04-06T12:05:07;89191.75;;;7.25;60.81
22649;BME280;11491;41.942;24.220;2023-04-06T12:07:35;89179.50;;;6.93;59.74
22649;BME280;11491;41.942;24.220;2023-04-06T12:10:04;89183.06;;;6.56;61.06
22649;BME280;11491;41.942;24.220;2023-04-06T12:12:31;89187.50;;;6.40;60.42
22649;BME280;11491;41.942;24.220;2023-04-06T12:14:58;89189.41;;;6.27;62.31
22649;BME280;11491;41.942;24.220;2023-04-06T12:17:25;89178.91;;;6.18;63.72
22649;BME280;11491;41.942;24.220;2023-04-06T12:19:52;89185.78;;;6.19;64.98
22649;BME280;11491;41.942;24.220;2023-04-06T12:22:19;89178.91;;;6.18;61.59
22649;BME280;11491;41.942;24.220;2023-04-06T12:24:47;89189.97;;;6.20;63.46
22649;BME280;11491;41.942;24.220;2023-04-06T12:27:14;89183.22;;;6.11;63.36
22649;BME280;11491;41.942;24.220;2023-04-06T12:29:41;89180.25;;;6.12;63.15
22649;BME280;11491;41.942;24.220;2023-04-06T12:32:08;89184.66;;;6.08;64.79
22649;BME280;11491;41.942;24.220;2023-04-06T12:34:35;89185.78;;;6.19;64.15
22649;BME280;11491;41.942;24.220;2023-04-06T12:37:05;89186.63;;;6.23;65.21
22649;BME280;11491;41.942;24.220;2023-04-06T12:39:32;89185.41;;;6.33;63.05
22649;BME280;11491;41.942;24.220;2023-04-06T12:42:00;89172.50;;;6.32;62.78
22649;BME280;11491;41.942;24.220;2023-04-06T12:44:28;89187.06;;;6.38;61.62
22649;BME280;11491;41.942;24.220;2023-04-06T12:46:55;89187.44;;;6.24;61.94
22649;BME280;11491;41.942;24.220;2023-04-06T12:49:22;89176.94;;;6.03;63.23
22649;BME280;11491;41.942;24.220;2023-04-06T12:51:48;89176.25;;;6.06;63.01
22649;BME280;11491;41.942;24.220;2023-04-06T12:54:16;89172.50;;;6.07;63.62
22649;BME280;11491;41.942;24.220;2023-04-06T12:56:42;89180.34;;;6.16;63.85